Time;durP1;ratioP1;P1;durP2;ratioP2;P2;SDS_P1;SDS_P2;PMS_P1;PMS_P2;Temp;Humidity;BMP_temperature;BMP_pressure;BME280_temperature;BME280_humidity;BME280_pressure;Samples;Min_cycle;Max_cycle;Signal;HPM_P1;HPM_P2
2021/09/17 00:02:18;;;;;;;11.78;4.50;;;;;;;16.15;54.82;100564.99;1771158;79;21010;-60
2021/09/17 00:04:44;;;;;;;8.73;4.65;;;;;;;16.14;54.86;100558.00;1767871;79;21132;-60
2021/09/17 00:07:12;;;;;;;10.30;5.53;;;;;;;16.13;55.20;100558.16;1733116;79;21107;-60
2021/09/17 00:09:39;;;;;;;10.70;5.25;;;;;;;16.09;55.59;100558.14;1738457;79;21513;-61
2021/09/17 00:12:07;;;;;;;10.18;5.80;;;;;;;16.06;56.06;100553.96;1737071;79;21101;-60
2021/09/17 00:14:35;;;;;;;9.18;5.25;;;;;;;16.01;56.41;100552.27;1770521;79;21090;-60
2021/09/17 00:17:04;;;;;;;8.43;5.05;;;;;;;15.98;56.76;100548.08;1767923;79;21062;-61
2021/09/17 00:19:32;;;;;;;10.88;4.85;;;;;;;15.94;56.58;100545.41;1765187;79;21027;-60
2021/09/17 00:22:00;;;;;;;9.45;5.47;;;;;;;15.91;56.45;100541.73;1770137;79;21070;-59
2021/09/17 00:24:29;;;;;;;11.18;5.67;;;;;;;15.90;56.55;100537.91;1765808;80;21726;-60
2021/09/17 00:26:55;;;;;;;9.23;5.45;;;;;;;15.88;56.19;100538.56;1773311;79;21058;-60
2021/09/17 00:29:23;;;;;;;11.22;5.75;;;;;;;15.84;56.30;100539.36;1770446;79;20996;-60
2021/09/17 00:31:50;;;;;;;9.08;4.95;;;;;;;15.83;56.27;100535.53;1762220;79;21512;-59
2021/09/17 00:34:17;;;;;;;9.08;5.20;;;;;;;15.79;56.28;100529.20;1764640;79;21565;-60
2021/09/17 00:36:43;;;;;;;9.78;5.42;;;;;;;15.79;56.36;100525.72;1766575;79;21797;-60
2021/09/17 00:39:13;;;;;;;9.35;5.25;;;;;;;15.82;56.38;100525.42;1760382;79;21118;-60
2021/09/17 00:41:41;;;;;;;9.48;4.95;;;;;;;15.84;56.13;100523.95;1739617;79;21058;-59
2021/09/17 00:44:09;;;;;;;9.80;5.15;;;;;;;15.87;55.89;100525.80;1731961;79;21050;-60
2021/09/17 00:46:37;;;;;;;10.20;5.60;;;;;;;15.91;55.56;100520.50;1767968;79;21101;-60
2021/09/17 00:49:04;;;;;;;12.90;5.37;;;;;;;15.93;55.46;100519.02;1739980;79;21531;-60
2021/09/17 00:51:30;;;;;;;7.87;4.87;;;;;;;15.95;55.14;100514.39;1763533;79;21097;-60
2021/09/17 00:53:57;;;;;;;12.15;5.17;;;;;;;15.97;54.92;100516.42;1765558;79;21206;-59
2021/09/17 00:56:26;;;;;;;9.63;5.03;;;;;;;15.96;54.44;100511.58;1770110;79;21081;-59
2021/09/17 00:58:52;;;;;;;10.32;5.97;;;;;;;15.96;54.14;100504.95;1761469;79;21029;-60
2021/09/17 01:01:19;;;;;;;12.00;5.55;;;;;;;15.98;53.74;100504.80;1733192;79;21083;-58
2021/09/17 01:03:46;;;;;;;12.15;5.60;;;;;;;16.01;53.18;100501.02;1768655;79;22395;-59
2021/09/17 01:06:12;;;;;;;9.38;5.28;;;;;;;16.03;52.92;100495.05;1768502;79;21743;-59
2021/09/17 01:08:38;;;;;;;10.65;5.10;;;;;;;16.08;52.73;100496.74;1711254;82;21082;-59
2021/09/17 01:11:07;;;;;;;9.45;5.40;;;;;;;16.12;52.56;100492.30;1700954;82;21136;-59
2021/09/17 01:13:35;;;;;;;10.35;5.70;;;;;;;16.18;52.46;100491.33;1762951;79;21110;-59
2021/09/17 01:16:04;;;;;;;9.73;5.67;;;;;;;16.20;52.46;100486.69;1750232;78;21022;-59
2021/09/17 01:18:31;;;;;;;10.85;5.53;;;;;;;16.22;52.40;100484.70;1778507;78;21142;-59
2021/09/17 01:21:03;;;;;;;10.13;5.17;;;;;;;16.27;52.03;100481.08;1776928;78;21069;-59
2021/09/17 01:23:30;;;;;;;11.22;5.67;;;;;;;16.30;52.12;100482.92;1778461;79;20986;-59
2021/09/17 01:25:56;;;;;;;9.88;5.03;;;;;;;16.32;52.02;100479.64;1751033;78;21534;-59
2021/09/17 01:28:25;;;;;;;11.25;5.97;;;;;;;16.34;51.86;100475.00;1772468;78;21030;-59
2021/09/17 01:30:51;;;;;;;11.33;5.95;;;;;;;16.34;51.91;100478.98;1772239;78;21113;-59
2021/09/17 01:33:20;;;;;;;11.65;5.28;;;;;;;16.34;51.70;100471.52;1779132;78;21033;-60
2021/09/17 01:35:46;;;;;;;8.75;4.95;;;;;;;16.32;51.99;100469.02;1773029;78;21085;-59
2021/09/17 01:38:12;;;;;;;11.48;5.30;;;;;;;16.31;51.48;100466.52;1749564;79;21040;-60
2021/09/17 01:40:39;;;;;;;10.08;4.87;;;;;;;16.30;51.29;100459.53;1751932;80;21135;-60
2021/09/17 01:43:05;;;;;;;13.90;6.25;;;;;;;16.30;51.51;100460.35;1768983;79;21961;-60
2021/09/17 01:45:32;;;;;;;10.20;5.95;;;;;;;16.30;51.85;100457.70;1778853;78;21106;-60
2021/09/17 01:48:01;;;;;;;12.15;5.47;;;;;;;16.31;51.66;100455.90;1777356;78;21071;-60
2021/09/17 01:50:27;;;;;;;12.73;5.70;;;;;;;16.28;51.56;100457.53;1776477;78;21551;-59
2021/09/17 01:52:53;;;;;;;8.48;5.25;;;;;;;16.27;51.22;100446.56;1771692;78;21026;-59
2021/09/17 01:55:23;;;;;;;11.45;5.20;;;;;;;16.27;51.31;100444.77;1773513;79;21694;-61
2021/09/17 01:57:53;;;;;;;11.30;5.75;;;;;;;16.28;51.26;100437.13;1777516;78;21041;-60
2021/09/17 02:00:19;;;;;;;12.03;5.35;;;;;;;16.31;51.27;100434.66;1749409;80;21646;-60
2021/09/17 02:02:46;;;;;;;9.05;5.50;;;;;;;16.32;51.05;100430.99;1747932;80;21079;-60
2021/09/17 02:05:13;;;;;;;9.68;4.92;;;;;;;16.33;51.10;100424.70;1774975;79;21042;-60
2021/09/17 02:07:40;;;;;;;9.98;5.05;;;;;;;16.37;51.02;100426.53;1750028;80;21284;-59
2021/09/17 02:10:09;;;;;;;13.53;5.87;;;;;;;16.39;51.06;100421.42;1776768;79;21038;-60
2021/09/17 02:12:37;;;;;;;10.30;4.90;;;;;;;16.42;50.58;100421.07;1771943;78;21042;-60
2021/09/17 02:15:08;;;;;;;9.65;5.00;;;;;;;16.45;50.70;100415.95;1769324;79;21059;-60
2021/09/17 02:17:35;;;;;;;12.03;5.00;;;;;;;16.48;50.57;100415.13;1762413;79;21019;-59
2021/09/17 02:20:04;;;;;;;9.05;5.12;;;;;;;16.49;50.52;100418.14;1738205;79;21944;-59
2021/09/17 02:22:31;;;;;;;11.65;4.92;;;;;;;16.50;50.46;100414.47;1726946;82;21043;-60
2021/09/17 02:28:09;;;;;;;10.60;5.42;;;;;;;16.57;50.06;100401.88;1809694;77;22598;-57
2021/09/17 02:30:36;;;;;;;10.85;4.95;;;;;;;16.57;49.94;100405.36;1772315;78;21529;-57
2021/09/17 02:33:03;;;;;;;14.13;5.05;;;;;;;16.60;49.81;100405.55;1779780;78;21323;-57
2021/09/17 02:35:29;;;;;;;10.35;5.37;;;;;;;16.60;49.86;100400.23;1774459;79;21663;-57
2021/09/17 02:37:56;;;;;;;10.03;4.22;;;;;;;16.61;49.79;100389.92;1776819;78;21077;-58
2021/09/17 02:40:25;;;;;;;10.80;4.45;;;;;;;16.64;49.52;100393.59;1753561;80;21091;-58
2021/09/17 02:42:51;;;;;;;9.00;4.78;;;;;;;16.62;49.46;100383.13;1776009;78;21537;-58
2021/09/17 02:45:20;;;;;;;8.73;4.20;;;;;;;16.63;49.52;100377.34;1763195;78;21156;-58
2021/09/17 02:47:46;;;;;;;9.00;4.53;;;;;;;16.63;49.52;100378.66;1751933;79;21050;-58
2021/09/17 02:50:15;;;;;;;8.05;4.37;;;;;;;16.63;49.52;100382.14;1773455;78;21117;-58
2021/09/17 02:52:42;;;;;;;7.12;3.90;;;;;;;16.63;49.45;100373.35;1773244;78;21022;-57
2021/09/17 02:55:10;;;;;;;9.33;3.70;;;;;;;16.63;49.34;100376.00;1741536;80;21658;-57
2021/09/17 02:57:38;;;;;;;9.78;4.72;;;;;;;16.62;49.17;100370.34;1693858;81;21238;-57
2021/09/17 03:00:10;;;;;;;9.50;4.15;;;;;;;16.60;49.28;100371.84;1673022;83;21092;-57
2021/09/17 03:02:36;;;;;;;8.50;4.15;;;;;;;16.60;49.22;100368.36;1658851;84;21616;-57
2021/09/17 03:05:04;;;;;;;9.40;4.40;;;;;;;16.57;49.39;100367.35;1648597;84;21190;-58
2021/09/17 03:07:30;;;;;;;11.90;5.50;;;;;;;16.54;49.52;100361.84;1658706;83;21160;-58
2021/09/17 03:09:59;;;;;;;7.67;4.25;;;;;;;16.55;49.54;100360.05;1660771;83;21177;-59
2021/09/17 03:12:27;;;;;;;6.83;3.30;;;;;;;16.53;49.60;100358.87;1678518;83;21478;-60
2021/09/17 03:14:57;;;;;;;8.65;3.70;;;;;;;16.50;49.51;100353.38;1710377;81;21139;-58
2021/09/17 03:17:25;;;;;;;6.67;3.42;;;;;;;16.50;48.88;100350.72;1713035;81;21597;-58
2021/09/17 03:19:54;;;;;;;7.05;3.60;;;;;;;16.51;49.03;100354.23;1712271;81;21140;-58
2021/09/17 03:22:22;;;;;;;7.40;3.50;;;;;;;16.52;48.97;100352.74;1716272;81;22914;-58
2021/09/17 03:24:50;;;;;;;8.50;3.65;;;;;;;16.53;49.01;100361.03;1714928;81;21032;-58
2021/09/17 03:27:19;;;;;;;8.83;3.87;;;;;;;16.55;48.85;100358.72;1679914;83;21595;-57
2021/09/17 03:29:46;;;;;;;9.63;4.40;;;;;;;16.57;48.86;100358.05;1655544;85;21566;-57
2021/09/17 03:32:12;;;;;;;7.72;3.65;;;;;;;16.56;49.16;100355.05;1733310;81;22342;-57
2021/09/17 03:34:39;;;;;;;10.35;3.92;;;;;;;16.56;49.16;100359.89;1736476;80;21246;-57
2021/09/17 03:37:09;;;;;;;7.90;3.77;;;;;;;16.58;49.00;100353.09;1769961;79;21003;-57
2021/09/17 03:39:37;;;;;;;8.40;3.52;;;;;;;16.60;49.11;100353.75;1771252;78;21011;-57
2021/09/17 03:42:05;;;;;;;10.15;4.05;;;;;;;16.60;49.03;100342.62;1765592;78;21534;-57
2021/09/17 03:44:33;;;;;;;7.33;3.60;;;;;;;16.60;49.13;100349.77;1768523;78;21029;-57
2021/09/17 03:47:02;;;;;;;7.97;3.67;;;;;;;16.59;49.05;100343.59;1770600;78;23581;-58
2021/09/17 03:49:30;;;;;;;8.10;3.83;;;;;;;16.59;48.93;100342.77;1780596;78;21049;-57
2021/09/17 03:51:56;;;;;;;9.18;4.37;;;;;;;16.61;48.96;100347.42;1765408;79;21077;-58
2021/09/17 03:54:27;;;;;;;8.18;4.05;;;;;;;16.62;48.87;100343.78;1737181;80;21098;-55
2021/09/17 03:56:58;;;;;;;8.83;4.00;;;;;;;16.64;48.87;100332.48;1770237;79;21662;-56
2021/09/17 03:59:25;;;;;;;6.58;3.75;;;;;;;16.67;49.10;100324.20;1735091;79;21210;-56
2021/09/17 04:01:52;;;;;;;7.30;3.92;;;;;;;16.68;49.36;100325.88;1732214;80;21101;-56
2021/09/17 04:04:22;;;;;;;8.30;3.95;;;;;;;16.71;49.86;100328.20;1740824;80;21034;-57
2021/09/17 04:06:52;;;;;;;7.90;3.72;;;;;;;16.73;49.35;100322.22;1771281;78;21088;-57
2021/09/17 04:09:20;;;;;;;7.40;3.52;;;;;;;16.76;49.01;100325.03;1735398;79;21076;-57
2021/09/17 04:11:48;;;;;;;7.72;3.37;;;;;;;16.78;48.98;100327.02;1760829;79;21120;-57
2021/09/17 04:14:14;;;;;;;8.45;4.00;;;;;;;16.79;48.71;100320.72;1734477;78;21085;-57
2021/09/17 04:16:42;;;;;;;8.15;3.67;;;;;;;16.82;48.60;100315.91;1762915;79;21058;-57
2021/09/17 04:19:09;;;;;;;7.83;3.85;;;;;;;16.84;48.69;100311.28;1774156;78;21046;-58
2021/09/17 04:21:37;;;;;;;9.10;3.80;;;;;;;16.85;48.52;100310.80;1766949;78;21441;-57
2021/09/17 04:24:05;;;;;;;8.78;3.42;;;;;;;16.87;48.51;100302.16;1773885;78;21057;-58
2021/09/17 04:26:31;;;;;;;7.08;3.50;;;;;;;16.89;48.76;100301.49;1744804;79;21646;-57
2021/09/17 04:28:58;;;;;;;8.63;4.05;;;;;;;16.89;48.48;100297.03;1775817;78;21000;-58
2021/09/17 04:31:25;;;;;;;7.03;3.65;;;;;;;16.90;48.47;100290.70;1780324;78;21133;-57
2021/09/17 04:33:54;;;;;;;8.20;3.62;;;;;;;16.94;48.37;100290.37;1779019;78;21508;-62
2021/09/17 04:36:21;;;;;;;8.85;4.05;;;;;;;16.95;48.47;100287.55;1716009;80;21332;-57
2021/09/17 04:38:48;;;;;;;8.85;3.95;;;;;;;16.97;48.81;100286.05;1740023;80;21057;-57
2021/09/17 04:41:14;;;;;;;7.90;3.77;;;;;;;16.99;48.77;100288.04;1702975;80;21120;-57
2021/09/17 04:43:41;;;;;;;8.08;3.60;;;;;;;17.03;48.72;100292.86;1735376;80;21068;-56
2021/09/17 04:46:09;;;;;;;9.45;4.03;;;;;;;17.08;48.79;100292.37;1734901;80;21044;-56
2021/09/17 04:48:36;;;;;;;9.15;4.03;;;;;;;17.13;48.69;100287.85;1715165;80;21097;-57
2021/09/17 04:51:04;;;;;;;7.87;4.05;;;;;;;17.16;48.61;100291.00;1733051;80;21021;-57
2021/09/17 04:53:34;;;;;;;7.55;3.92;;;;;;;17.18;48.72;100287.70;1743056;80;21054;-57
2021/09/17 04:56:02;;;;;;;8.35;3.22;;;;;;;17.20;48.85;100288.36;1732838;81;21067;-58
2021/09/17 04:58:28;;;;;;;8.48;3.67;;;;;;;17.24;48.58;100292.83;1730201;81;21305;-58
2021/09/17 05:00:55;;;;;;;9.23;4.00;;;;;;;17.27;48.70;100281.36;1727373;81;21559;-69
2021/09/17 05:03:23;;;;;;;7.37;3.58;;;;;;;17.29;48.50;100279.04;1746361;80;21058;-63
2021/09/17 05:05:49;;;;;;;8.53;3.40;;;;;;;17.30;48.52;100274.03;1736559;80;21084;-65
2021/09/17 05:08:16;;;;;;;6.62;3.60;;;;;;;17.31;48.49;100266.39;1740902;80;21104;-66
2021/09/17 05:10:44;;;;;;;10.50;4.05;;;;;;;17.32;48.57;100270.22;1707747;80;21069;-64
2021/09/17 05:13:11;;;;;;;10.55;3.70;;;;;;;17.35;48.60;100263.72;1735579;80;21969;-71
2021/09/17 05:15:38;;;;;;;10.90;4.20;;;;;;;17.40;48.74;100266.69;1739482;80;21081;-65
2021/09/17 05:18:04;;;;;;;8.80;4.05;;;;;;;17.46;48.73;100262.85;1735162;80;21473;-64
2021/09/17 05:20:33;;;;;;;6.92;3.17;;;;;;;17.53;48.68;100264.84;1736021;80;21065;-57
2021/09/17 05:23:01;;;;;;;7.85;3.92;;;;;;;17.56;48.66;100257.34;1736126;81;21052;-57
2021/09/17 05:25:29;;;;;;;15.23;3.62;;;;;;;17.61;48.77;100259.49;1729625;81;21466;-57
2021/09/17 05:27:56;;;;;;;9.15;3.90;;;;;;;17.66;48.81;100258.98;1730416;80;21086;-57
2021/09/17 05:30:24;;;;;;;9.05;4.20;;;;;;;17.70;48.57;100256.30;1672452;81;21109;-57
2021/09/17 05:32:52;;;;;;;10.50;3.67;;;;;;;17.75;48.60;100249.95;1768324;78;21070;-58
2021/09/17 05:35:18;;;;;;;10.13;3.80;;;;;;;17.80;48.57;100246.27;1748269;78;21059;-58
2021/09/17 05:37:45;;;;;;;7.80;3.87;;;;;;;17.84;48.55;100239.61;1734278;80;21090;-58
2021/09/17 05:40:12;;;;;;;9.40;4.87;;;;;;;17.87;48.51;100237.97;1715487;81;21134;-57
2021/09/17 05:42:38;;;;;;;7.12;4.03;;;;;;;17.92;48.45;100228.11;1772619;78;21082;-58
2021/09/17 05:45:05;;;;;;;7.62;3.80;;;;;;;17.96;48.39;100228.92;1726871;80;21573;-58
2021/09/17 05:47:32;;;;;;;9.08;4.37;;;;;;;17.99;48.40;100221.11;1704676;82;21074;-58
2021/09/17 05:49:58;;;;;;;8.90;4.05;;;;;;;18.05;48.19;100223.55;1697893;81;21062;-58
2021/09/17 05:52:25;;;;;;;9.08;3.75;;;;;;;18.10;48.49;100223.34;1711755;81;21099;-55
2021/09/17 05:54:51;;;;;;;9.15;4.83;;;;;;;18.15;48.24;100222.83;1681877;83;21134;-56
2021/09/17 05:57:18;;;;;;;8.20;3.80;;;;;;;18.20;48.27;100217.80;1708468;81;21084;-55
2021/09/17 05:59:44;;;;;;;9.50;4.22;;;;;;;18.24;48.23;100215.12;1676295;81;21073;-59
2021/09/17 06:02:11;;;;;;;6.45;3.55;;;;;;;18.31;48.44;100217.39;1765662;78;21075;-58
2021/09/17 06:04:39;;;;;;;9.08;3.77;;;;;;;18.41;48.26;100214.50;1733148;80;21092;-60
2021/09/17 06:07:05;;;;;;;6.25;3.40;;;;;;;18.49;47.56;100213.11;1704554;80;21049;-64
2021/09/17 06:09:34;;;;;;;9.35;3.85;;;;;;;18.57;47.72;100211.69;1709735;81;21121;-57
2021/09/17 06:12:03;;;;;;;7.42;3.98;;;;;;;18.65;47.81;100205.47;1769619;78;21050;-64
2021/09/17 06:14:29;;;;;;;12.23;4.70;;;;;;;18.73;48.08;100201.40;1776169;78;21478;-64
2021/09/17 06:16:56;;;;;;;13.43;3.95;;;;;;;18.83;48.01;100199.00;1733145;80;21057;-67
2021/09/17 06:19:22;;;;;;;10.72;4.58;;;;;;;18.91;48.36;100201.59;1686592;82;21565;-58
2021/09/17 06:21:51;;;;;;;11.43;4.40;;;;;;;18.98;48.23;100201.20;1765198;78;21034;-61
2021/09/17 06:24:17;;;;;;;9.33;4.53;;;;;;;19.02;48.18;100191.00;1728114;80;21485;-61
2021/09/17 06:26:44;;;;;;;10.45;4.67;;;;;;;19.07;48.33;100192.61;1763547;78;21080;-63
2021/09/17 06:29:11;;;;;;;9.35;4.20;;;;;;;19.10;48.61;100191.73;1722046;80;21018;-62
2021/09/17 06:31:38;;;;;;;11.73;4.72;;;;;;;19.15;48.66;100195.20;1728111;80;21666;-62
2021/09/17 06:34:04;;;;;;;9.40;4.33;;;;;;;19.21;49.03;100186.95;1708841;81;21667;-63
2021/09/17 06:36:31;;;;;;;8.05;4.55;;;;;;;19.29;49.10;100190.86;1718175;81;21114;-63
2021/09/17 06:39:02;;;;;;;10.03;4.92;;;;;;;19.33;48.92;100187.31;1715567;81;21495;-61
2021/09/17 06:41:30;;;;;;;10.18;4.45;;;;;;;19.36;49.24;100185.62;1711032;82;21113;-60
2021/09/17 06:43:58;;;;;;;10.80;4.50;;;;;;;19.41;49.47;100183.22;1714355;81;21111;-61
2021/09/17 06:46:25;;;;;;;10.40;4.58;;;;;;;19.42;49.75;100179.03;1711930;81;21074;-60
2021/09/17 06:48:52;;;;;;;8.60;4.22;;;;;;;19.46;50.10;100182.97;1731765;82;21433;-60
2021/09/17 06:51:19;;;;;;;10.03;4.50;;;;;;;19.47;50.17;100181.16;1719261;81;21137;-59
2021/09/17 06:53:45;;;;;;;8.73;4.65;;;;;;;19.52;50.41;100173.90;1722464;81;21054;-60
2021/09/17 06:56:12;;;;;;;10.40;4.20;;;;;;;19.56;50.22;100181.88;1723449;82;21333;-64
2021/09/17 06:58:43;;;;;;;10.95;4.85;;;;;;;19.60;50.37;100181.31;1730121;80;21101;-64
2021/09/17 07:01:10;;;;;;;10.58;5.08;;;;;;;19.63;50.71;100179.59;1708632;81;21511;-61
2021/09/17 07:03:36;;;;;;;9.65;4.30;;;;;;;19.67;50.42;100173.39;1724577;81;23218;-60
2021/09/17 07:06:03;;;;;;;8.60;4.25;;;;;;;19.74;50.66;100176.95;1764441;78;21094;-61
2021/09/17 07:08:29;;;;;;;9.58;4.40;;;;;;;19.82;50.75;100182.22;1763375;79;21527;-61
2021/09/17 07:10:55;;;;;;;9.65;4.08;;;;;;;19.91;50.98;100180.77;1703132;81;20995;-62
2021/09/17 07:13:24;;;;;;;10.20;4.75;;;;;;;20.00;51.02;100172.42;1724156;80;20999;-62
2021/09/17 07:15:50;;;;;;;10.75;4.53;;;;;;;20.09;51.23;100167.81;1728503;80;21096;-62
2021/09/17 07:18:17;;;;;;;8.00;4.47;;;;;;;20.16;50.97;100170.03;1671325;82;21150;-62
2021/09/17 07:20:43;;;;;;;12.28;4.87;;;;;;;20.23;50.73;100160.75;1723565;80;21734;-63
2021/09/17 07:23:11;;;;;;;9.18;4.80;;;;;;;20.32;51.18;100166.78;1694141;82;21076;-64
2021/09/17 07:25:39;;;;;;;9.28;4.35;;;;;;;20.42;51.34;100167.27;1726926;80;21073;-61
2021/09/17 07:28:07;;;;;;;9.65;4.72;;;;;;;20.53;51.31;100164.08;1698139;82;21179;-65
2021/09/17 07:30:33;;;;;;;8.98;4.85;;;;;;;20.64;51.49;100157.92;1739365;80;21109;-62
2021/09/17 07:33:00;;;;;;;7.95;4.70;;;;;;;20.75;51.45;100156.88;1709461;80;21141;-61
2021/09/17 07:35:27;;;;;;;9.65;5.75;;;;;;;20.87;51.60;100149.13;1735883;80;21051;-62
2021/09/17 07:37:54;;;;;;;9.93;4.70;;;;;;;20.95;50.63;100147.64;1740749;81;21094;-61
2021/09/17 07:40:21;;;;;;;13.50;4.70;;;;;;;21.00;50.47;100139.53;1740959;80;21143;-64
2021/09/17 07:42:48;;;;;;;13.28;5.10;;;;;;;21.06;50.50;100136.07;1738474;80;21066;-64
2021/09/17 07:45:17;;;;;;;9.90;4.53;;;;;;;21.10;50.69;100142.70;1739481;80;21027;-61
2021/09/17 07:47:44;;;;;;;8.63;4.25;;;;;;;21.12;50.62;100133.44;1705026;80;21565;-62
2021/09/17 07:50:12;;;;;;;6.78;3.60;;;;;;;21.16;51.08;100135.20;1700333;80;21050;-62
2021/09/17 07:52:39;;;;;;;9.23;4.85;;;;;;;21.21;50.62;100136.77;1737116;80;22394;-63
2021/09/17 07:55:08;;;;;;;10.32;5.40;;;;;;;21.22;50.26;100126.39;1732077;80;21556;-64
2021/09/17 07:57:34;;;;;;;12.00;4.85;;;;;;;21.23;50.56;100126.71;1729648;80;21069;-64
2021/09/17 08:00:00;;;;;;;10.30;4.20;;;;;;;21.24;50.66;100125.67;1771711;78;21051;-67
2021/09/17 08:02:27;;;;;;;9.35;5.25;;;;;;;21.27;51.20;100120.45;1737591;80;21050;-64
2021/09/17 08:04:54;;;;;;;14.15;5.25;;;;;;;21.30;50.94;100119.53;1717275;81;21226;-66
2021/09/17 08:07:20;;;;;;;8.50;5.28;;;;;;;21.32;50.96;100114.80;1769252;78;21644;-63
2021/09/17 08:09:48;;;;;;;10.43;5.45;;;;;;;21.36;50.98;100120.57;1728328;80;21053;-65
2021/09/17 08:12:14;;;;;;;7.62;4.47;;;;;;;21.39;51.29;100114.82;1739349;80;21097;-63
2021/09/17 08:14:41;;;;;;;8.45;5.00;;;;;;;21.42;51.23;100114.42;1774598;78;21050;-64
2021/09/17 08:17:09;;;;;;;11.03;4.95;;;;;;;21.45;51.54;100104.66;1735117;80;21060;-64
2021/09/17 08:19:36;;;;;;;11.05;5.37;;;;;;;21.51;51.37;100103.05;1766887;78;21043;-64
2021/09/17 08:22:04;;;;;;;9.15;5.20;;;;;;;21.53;51.30;100100.99;1765790;79;21043;-64
2021/09/17 08:24:30;;;;;;;11.97;5.33;;;;;;;21.54;51.90;100087.93;1730357;80;21093;-64
2021/09/17 08:27:00;;;;;;;9.43;5.20;;;;;;;21.58;51.91;100090.50;1731002;80;21034;-63
2021/09/17 08:29:27;;;;;;;10.13;5.25;;;;;;;21.60;51.38;100084.45;1765096;78;21124;-63
2021/09/17 08:31:55;;;;;;;9.95;4.92;;;;;;;21.62;51.43;100082.89;1768925;79;21027;-63
2021/09/17 08:34:22;;;;;;;9.35;4.22;;;;;;;21.63;51.30;100082.69;1718276;80;21043;-63
2021/09/17 08:36:51;;;;;;;9.58;5.00;;;;;;;21.65;51.08;100076.64;1721013;80;21667;-63
2021/09/17 08:39:18;;;;;;;8.73;4.92;;;;;;;21.67;51.33;100075.91;1723252;80;21105;-64
2021/09/17 08:41:45;;;;;;;8.53;4.55;;;;;;;21.70;51.18;100080.02;1694835;84;23196;-64
2021/09/17 08:44:15;;;;;;;8.98;5.45;;;;;;;21.71;51.35;100075.80;1722394;81;21082;-61
2021/09/17 08:46:45;;;;;;;9.40;4.62;;;;;;;21.77;51.74;100076.02;1728652;80;21097;-62
2021/09/17 08:49:15;;;;;;;8.23;5.05;;;;;;;21.83;51.57;100068.52;1716426;81;21600;-62
2021/09/17 08:51:45;;;;;;;10.08;5.12;;;;;;;21.89;51.99;100061.83;1727503;80;21141;-65
2021/09/17 08:54:12;;;;;;;15.85;5.17;;;;;;;21.96;51.88;100056.48;1705054;81;22503;-58
2021/09/17 08:56:38;;;;;;;9.83;5.03;;;;;;;22.03;51.67;100059.16;1723605;81;20991;-61
2021/09/17 08:59:05;;;;;;;11.68;5.03;;;;;;;22.08;51.39;100060.17;1729499;81;21033;-62
2021/09/17 09:01:36;;;;;;;7.10;4.40;;;;;;;22.14;51.02;100055.02;1724715;80;21529;-62
2021/09/17 09:04:07;;;;;;;11.25;5.15;;;;;;;22.20;50.64;100060.91;1729728;80;21055;-63
2021/09/17 09:06:37;;;;;;;12.85;5.45;;;;;;;22.26;50.70;100053.39;1708023;81;21155;-63
2021/09/17 09:09:18;;;;;;;10.63;5.28;;;;;;;22.37;50.76;100050.08;1733356;80;21039;-61
2021/09/17 09:11:50;;;;;;;8.23;4.70;;;;;;;22.47;50.23;100042.14;1727809;80;21053;-64
2021/09/17 09:14:17;;;;;;;20.57;6.22;;;;;;;22.53;50.07;100044.00;1725823;80;21538;-62
2021/09/17 09:16:52;;;;;;;7.78;4.65;;;;;;;22.55;49.72;100047.28;1728194;81;21086;-62
2021/09/17 09:19:33;;;;;;;7.80;4.78;;;;;;;22.60;50.68;100039.44;1730410;80;21094;-63
2021/09/17 09:22:09;;;;;;;9.73;4.65;;;;;;;22.66;49.78;100039.91;1727926;81;21038;-64
2021/09/17 09:24:43;;;;;;;8.45;4.15;;;;;;;22.70;49.88;100036.31;1706953;82;21106;-62
2021/09/17 09:27:19;;;;;;;8.83;4.62;;;;;;;22.75;49.77;100032.48;1700686;82;21054;-65
2021/09/17 09:29:50;;;;;;;7.75;4.47;;;;;;;22.82;49.89;100027.91;1728394;81;21689;-63
2021/09/17 09:32:33;;;;;;;9.98;4.67;;;;;;;22.87;49.45;100029.44;1730506;80;21102;-64
2021/09/17 09:35:02;;;;;;;7.83;4.47;;;;;;;22.88;48.90;100020.86;1706461;81;21094;-64
2021/09/17 09:37:34;;;;;;;10.90;5.00;;;;;;;22.91;48.91;100017.23;1723365;80;21081;-64
2021/09/17 09:40:12;;;;;;;10.72;4.42;;;;;;;22.93;49.02;100023.23;1734816;80;21608;-64
2021/09/17 09:42:42;;;;;;;9.50;5.00;;;;;;;22.97;48.63;100015.58;1734797;81;21054;-64
2021/09/17 09:45:17;;;;;;;9.33;4.65;;;;;;;23.00;49.00;100013.81;1729457;81;21050;-64
2021/09/17 09:47:47;;;;;;;7.97;4.55;;;;;;;23.01;49.30;100011.42;1727888;81;21097;-65
2021/09/17 09:50:18;;;;;;;10.82;4.97;;;;;;;23.06;49.98;100012.12;1729156;80;21058;-65
2021/09/17 09:52:45;;;;;;;9.78;5.10;;;;;;;23.11;50.45;100012.34;1731869;80;21651;-64
2021/09/17 09:55:12;;;;;;;6.87;4.35;;;;;;;23.15;49.86;100010.88;1734746;80;21081;-67
2021/09/17 09:57:40;;;;;;;16.27;4.75;;;;;;;23.17;49.36;100006.12;1708517;81;21069;-65
2021/09/17 10:00:12;;;;;;;7.75;4.10;;;;;;;23.17;48.81;100001.56;1732540;80;21045;-63
2021/09/17 10:02:43;;;;;;;12.28;3.95;;;;;;;23.18;48.42;100002.38;1714673;81;21270;-64
2021/09/17 10:05:11;;;;;;;7.10;3.95;;;;;;;23.16;47.87;100001.25;1727699;80;21085;-66
2021/09/17 10:07:38;;;;;;;7.12;4.10;;;;;;;23.13;47.86;99997.68;1707383;82;22210;-65
2021/09/17 10:10:08;;;;;;;11.10;4.95;;;;;;;23.13;47.93;99995.49;1725507;80;21125;-64
2021/09/17 10:12:34;;;;;;;11.68;4.35;;;;;;;23.13;48.07;99991.47;1725616;80;21585;-63
2021/09/17 10:15:01;;;;;;;10.00;4.37;;;;;;;23.14;47.90;99996.62;1710784;80;21111;-63
2021/09/17 10:17:30;;;;;;;10.10;4.80;;;;;;;23.17;47.96;99996.73;1723426;80;21116;-62
2021/09/17 10:19:58;;;;;;;9.38;4.37;;;;;;;23.21;47.56;99984.51;1732864;80;21043;-65
2021/09/17 10:22:39;;;;;;;11.73;5.08;;;;;;;23.24;47.02;99983.27;1708167;80;21328;-66
2021/09/17 10:25:23;;;;;;;7.50;4.47;;;;;;;23.26;47.55;99979.84;1728112;80;21112;-61
2021/09/17 10:28:06;;;;;;;9.40;4.58;;;;;;;23.29;47.40;99980.76;1732373;81;21043;-70
2021/09/17 10:30:36;;;;;;;6.70;4.22;;;;;;;23.36;47.43;99978.31;1726891;80;21610;-66
2021/09/17 10:33:02;;;;;;;13.25;5.50;;;;;;;23.45;47.75;99976.71;1705162;82;21010;-64
2021/09/17 10:35:44;;;;;;;8.50;5.08;;;;;;;23.52;47.06;99974.83;1726320;80;21209;-66
2021/09/17 10:38:19;;;;;;;8.75;4.75;;;;;;;23.58;47.60;99965.88;1728278;81;21043;-64
2021/09/17 10:40:54;;;;;;;8.35;4.37;;;;;;;23.68;47.36;99964.86;1698048;82;21115;-64
2021/09/17 10:43:29;;;;;;;8.58;4.55;;;;;;;23.76;47.62;99961.62;1724319;82;21148;-63
2021/09/17 10:46:05;;;;;;;9.90;4.60;;;;;;;23.84;47.40;99953.28;1690761;84;21099;-63
2021/09/17 10:48:52;;;;;;;7.47;4.58;;;;;;;23.91;46.58;99951.38;1691724;80;21533;-63
2021/09/17 10:51:39;;;;;;;7.78;5.10;;;;;;;23.91;46.57;99956.22;1694446;82;21163;-66
2021/09/17 10:54:14;;;;;;;7.42;4.78;;;;;;;23.93;46.89;99956.81;1710126;81;21685;-63
2021/09/17 10:56:55;;;;;;;10.80;5.10;;;;;;;23.93;45.82;99950.10;1706330;81;21107;-62
2021/09/17 10:59:29;;;;;;;11.88;5.22;;;;;;;23.92;46.39;99954.35;1726788;80;21086;-66
2021/09/17 11:02:03;;;;;;;11.38;5.12;;;;;;;23.91;46.40;99954.88;1726441;80;21834;-65
2021/09/17 11:04:36;;;;;;;9.48;4.60;;;;;;;23.90;46.20;99949.73;1690480;82;21554;-66
2021/09/17 11:07:32;;;;;;;9.68;5.25;;;;;;;23.88;46.06;99947.26;1719944;80;21174;-66
2021/09/17 11:09:56;;;;;;;8.43;4.70;;;;;;;23.84;45.88;99944.73;1695711;82;21141;-66
2021/09/17 11:12:34;;;;;;;13.78;5.37;;;;;;;23.78;45.40;99942.06;1732291;80;21087;-63
2021/09/17 11:15:16;;;;;;;12.70;5.72;;;;;;;23.74;45.65;99937.13;1694739;82;21175;-62
2021/09/17 11:17:53;;;;;;;9.40;5.30;;;;;;;23.70;46.28;99931.06;1717390;81;21352;-63
2021/09/17 11:20:28;;;;;;;7.58;4.70;;;;;;;23.64;45.93;99931.97;1696859;82;21429;-63
2021/09/17 11:23:03;;;;;;;10.28;5.37;;;;;;;23.60;46.34;99927.53;1715683;81;21075;-63
2021/09/17 11:25:43;;;;;;;9.43;4.45;;;;;;;23.60;46.65;99932.09;1695640;81;21500;-64
2021/09/17 11:28:30;;;;;;;17.35;5.58;;;;;;;23.58;46.97;99931.50;1697963;81;21089;-62
2021/09/17 11:31:12;;;;;;;11.70;5.30;;;;;;;23.54;46.93;99933.27;1716808;82;21084;-63
2021/09/17 11:33:40;;;;;;;13.25;6.08;;;;;;;23.49;47.16;99937.14;1712580;81;21099;-62
2021/09/17 11:36:07;;;;;;;12.93;5.90;;;;;;;23.45;47.33;99932.41;1714493;82;21064;-66